Time;durP1;ratioP1;P1;durP2;ratioP2;P2;SDS_P1;SDS_P2;PMS_P1;PMS_P2;Temp;Humidity;BMP_temperature;BMP_pressure;BME280_temperature;BME280_humidity;BME280_pressure;Samples;Min_cycle;Max_cycle;Signal;HPM_P1;HPM_P2
2023/09/27 00:02:02;;;;;;;9.40;7.30;;;13.50;99.90;;;;;;4977612;28;20166;-83
2023/09/27 00:04:28;;;;;;;12.02;7.90;;;13.50;99.90;;;;;;4970782;28;20026;-82
2023/09/27 00:06:54;;;;;;;9.73;7.97;;;13.50;99.90;;;;;;4974950;28;20122;-79
2023/09/27 00:09:20;;;;;;;10.18;7.55;;;13.40;99.90;;;;;;4972443;28;20109;-82
2023/09/27 00:11:46;;;;;;;11.05;7.10;;;13.40;99.90;;;;;;4979911;28;20049;-79
2023/09/27 00:14:13;;;;;;;9.27;6.75;;;13.40;99.90;;;;;;4980848;28;20026;-79
2023/09/27 00:16:39;;;;;;;13.23;8.15;;;13.40;99.90;;;;;;4979046;28;20480;-82
2023/09/27 00:19:05;;;;;;;12.07;8.30;;;13.40;99.90;;;;;;4974855;28;20041;-82
2023/09/27 00:21:31;;;;;;;13.18;8.73;;;13.40;99.90;;;;;;4975580;28;20073;-81
2023/09/27 00:23:57;;;;;;;12.70;9.05;;;13.30;99.90;;;;;;4977751;28;20026;-80
2023/09/27 00:26:23;;;;;;;11.55;7.97;;;13.30;99.90;;;;;;4978046;28;20033;-79
2023/09/27 00:28:49;;;;;;;10.10;7.97;;;13.30;99.90;;;;;;4966722;28;20125;-80
2023/09/27 00:31:15;;;;;;;13.63;9.38;;;13.30;99.90;;;;;;4982823;28;20062;-80
2023/09/27 00:33:41;;;;;;;13.65;8.38;;;13.30;99.90;;;;;;4951217;28;20040;-82
2023/09/27 00:36:07;;;;;;;12.40;8.00;;;13.20;99.90;;;;;;4977750;28;20030;-79
2023/09/27 00:38:32;;;;;;;12.88;8.35;;;13.20;99.90;;;;;;4977698;28;20508;-83
2023/09/27 00:40:58;;;;;;;15.13;8.73;;;13.20;99.90;;;;;;4978290;28;20049;-81
2023/09/27 00:43:29;;;;;;;10.88;8.77;;;13.20;99.90;;;;;;4982529;28;20026;-83
2023/09/27 00:46:00;;;;;;;10.73;8.52;;;13.10;99.90;;;;;;4979469;28;20034;-81
2023/09/27 00:48:27;;;;;;;12.20;8.45;;;13.10;99.90;;;;;;4947293;28;20571;-80
2023/09/27 00:50:54;;;;;;;12.15;8.20;;;13.10;99.90;;;;;;4975399;28;20027;-82
2023/09/27 00:53:25;;;;;;;10.82;7.95;;;13.20;99.90;;;;;;4963168;28;20030;-82
2023/09/27 00:55:51;;;;;;;12.52;7.72;;;13.20;99.90;;;;;;4958052;28;20038;-80
2023/09/27 00:58:20;;;;;;;10.25;7.80;;;13.10;99.90;;;;;;4980927;28;20234;-79
2023/09/27 01:00:50;;;;;;;11.05;7.50;;;13.10;99.90;;;;;;4953784;28;20042;-79
2023/09/27 01:03:18;;;;;;;9.98;7.25;;;13.10;99.90;;;;;;4941251;28;20490;-80
2023/09/27 01:05:44;;;;;;;9.40;7.80;;;13.10;99.90;;;;;;4976232;28;20673;-80
2023/09/27 01:08:12;;;;;;;8.63;7.10;;;13.10;99.90;;;;;;4979580;28;20130;-81
2023/09/27 01:10:38;;;;;;;10.55;7.53;;;13.10;99.90;;;;;;4967350;28;20182;-80
2023/09/27 01:13:04;;;;;;;13.10;9.02;;;13.10;99.90;;;;;;4976268;28;20532;-80
2023/09/27 01:15:32;;;;;;;12.20;9.05;;;13.10;99.90;;;;;;4980092;28;20081;-80
2023/09/27 01:18:00;;;;;;;11.85;8.25;;;13.10;99.90;;;;;;4981643;28;20094;-80
2023/09/27 01:20:27;;;;;;;10.73;7.50;;;13.20;99.90;;;;;;4983155;28;20062;-79
2023/09/27 01:22:59;;;;;;;6.72;5.82;;;13.20;99.90;;;;;;4979292;28;20085;-80
2023/09/27 01:25:36;;;;;;;7.85;5.32;;;13.20;99.90;;;;;;4976618;28;20027;-80
2023/09/27 01:28:08;;;;;;;9.68;6.57;;;13.20;99.90;;;;;;4962792;28;20031;-80
2023/09/27 01:30:35;;;;;;;10.45;6.22;;;13.20;99.90;;;;;;4961696;28;20026;-80
2023/09/27 01:33:06;;;;;;;17.38;5.70;;;13.10;99.90;;;;;;4961084;28;20026;-82
2023/09/27 01:35:35;;;;;;;7.78;6.20;;;13.00;99.90;;;;;;4979277;28;20066;-80
2023/09/27 01:38:02;;;;;;;8.13;6.28;;;12.90;99.90;;;;;;4956970;28;20048;-80
2023/09/27 01:40:30;;;;;;;8.23;6.10;;;12.80;99.90;;;;;;4976628;28;20522;-80
2023/09/27 01:43:00;;;;;;;7.63;5.43;;;12.80;99.90;;;;;;4979445;28;20027;-80
2023/09/27 01:45:26;;;;;;;8.38;5.00;;;12.90;99.90;;;;;;4984920;28;20023;-80
2023/09/27 01:47:52;;;;;;;5.13;4.30;;;12.90;99.90;;;;;;4980408;28;20100;-82
2023/09/27 01:50:19;;;;;;;5.55;4.63;;;12.90;99.90;;;;;;4980679;28;20105;-80
2023/09/27 01:52:48;;;;;;;7.53;5.85;;;12.90;99.90;;;;;;4975045;28;20039;-79
2023/09/27 01:55:14;;;;;;;10.85;6.65;;;12.90;99.90;;;;;;4979070;28;20034;-80
2023/09/27 01:57:39;;;;;;;9.43;6.80;;;12.80;99.90;;;;;;4965715;28;20027;-79
2023/09/27 02:00:10;;;;;;;9.40;7.22;;;12.80;99.90;;;;;;4956455;28;20592;-79
2023/09/27 02:02:38;;;;;;;9.00;6.97;;;12.80;99.90;;;;;;4975289;28;20042;-79
2023/09/27 02:05:04;;;;;;;7.45;6.55;;;12.70;99.90;;;;;;4972824;28;20039;-81
2023/09/27 02:07:30;;;;;;;7.97;6.13;;;12.60;99.90;;;;;;4979838;28;20045;-79
2023/09/27 02:09:56;;;;;;;7.28;6.07;;;12.60;99.90;;;;;;4977935;28;20030;-81
2023/09/27 02:12:22;;;;;;;10.50;7.65;;;12.70;99.90;;;;;;4978369;28;20037;-78
2023/09/27 02:14:48;;;;;;;9.82;7.53;;;12.60;99.90;;;;;;4979684;28;20137;-80
2023/09/27 02:17:15;;;;;;;8.18;6.60;;;12.60;99.90;;;;;;4961383;28;20094;-79
2023/09/27 02:19:41;;;;;;;8.00;6.80;;;12.50;99.90;;;;;;4962611;28;20027;-79
2023/09/27 02:22:08;;;;;;;9.38;6.88;;;12.50;99.90;;;;;;4975868;28;20030;-80
2023/09/27 02:24:34;;;;;;;8.07;6.35;;;12.40;99.90;;;;;;4976945;28;20542;-79
2023/09/27 02:27:00;;;;;;;7.63;6.05;;;12.40;99.90;;;;;;4978069;28;20041;-79
2023/09/27 02:29:27;;;;;;;8.15;6.50;;;12.40;99.90;;;;;;4966111;28;20030;-79
2023/09/27 02:31:52;;;;;;;7.20;5.75;;;12.50;99.90;;;;;;4962918;28;20042;-78
2023/09/27 02:34:18;;;;;;;7.05;5.63;;;12.40;99.90;;;;;;4981176;28;20050;-79
2023/09/27 02:36:45;;;;;;;6.57;4.68;;;12.40;99.90;;;;;;4964869;28;20031;-79
2023/09/27 02:39:11;;;;;;;9.18;5.43;;;12.40;99.90;;;;;;4980357;28;20093;-79
2023/09/27 02:41:37;;;;;;;7.22;4.88;;;12.40;99.90;;;;;;4978059;28;20031;-78
2023/09/27 02:44:03;;;;;;;6.68;5.50;;;12.40;99.90;;;;;;4980073;28;20439;-81
2023/09/27 02:46:29;;;;;;;6.43;5.57;;;12.40;99.90;;;;;;4985553;28;20037;-79
2023/09/27 02:48:56;;;;;;;8.77;5.88;;;12.30;99.90;;;;;;4976758;28;20063;-79
2023/09/27 02:51:22;;;;;;;6.78;6.07;;;12.20;99.90;;;;;;4978279;28;20046;-81
2023/09/27 02:53:49;;;;;;;8.52;6.75;;;12.20;99.90;;;;;;4968169;28;20038;-78
2023/09/27 02:56:15;;;;;;;8.70;6.68;;;12.10;99.90;;;;;;4957840;28;20796;-81
2023/09/27 02:58:40;;;;;;;8.07;6.57;;;12.00;99.90;;;;;;4959803;28;20054;-78
2023/09/27 03:01:08;;;;;;;9.27;7.03;;;12.00;99.90;;;;;;4959839;28;20046;-82
2023/09/27 03:03:34;;;;;;;10.13;7.57;;;12.00;99.90;;;;;;4961600;28;20094;-80
2023/09/27 03:06:00;;;;;;;23.83;10.50;;;12.10;99.90;;;;;;4963518;28;20038;-78
2023/09/27 03:08:26;;;;;;;13.57;8.20;;;12.10;99.90;;;;;;4960478;28;20027;-80
2023/09/27 03:10:52;;;;;;;15.85;9.23;;;12.10;99.90;;;;;;4957288;28;20065;-80
2023/09/27 03:13:18;;;;;;;13.40;8.63;;;12.20;99.90;;;;;;4955107;28;20055;-80
2023/09/27 03:15:55;;;;;;;12.05;8.27;;;12.20;99.90;;;;;;4956320;28;20059;-80
2023/09/27 03:18:22;;;;;;;14.57;9.23;;;12.20;99.90;;;;;;4971245;28;20022;-79
2023/09/27 03:20:48;;;;;;;11.48;8.00;;;12.20;99.90;;;;;;4943623;28;20038;-80
2023/09/27 03:23:14;;;;;;;11.40;8.15;;;12.20;99.90;;;;;;4963426;28;20039;-80
2023/09/27 03:25:40;;;;;;;10.27;8.05;;;12.20;99.90;;;;;;4967625;28;20110;-80
2023/09/27 03:28:05;;;;;;;9.98;6.53;;;12.20;99.90;;;;;;4974937;28;20151;-79
2023/09/27 03:30:31;;;;;;;8.25;5.72;;;12.20;99.90;;;;;;4949217;28;20579;-81
2023/09/27 03:32:57;;;;;;;9.73;6.00;;;12.20;99.90;;;;;;4951954;28;20592;-81
2023/09/27 03:35:22;;;;;;;9.77;7.30;;;12.20;99.90;;;;;;4957537;28;20043;-79
2023/09/27 03:37:48;;;;;;;9.52;7.32;;;12.20;99.90;;;;;;4979068;28;20054;-78
2023/09/27 03:40:14;;;;;;;9.70;6.80;;;12.10;99.90;;;;;;4972368;28;20030;-78
2023/09/27 03:42:44;;;;;;;8.48;6.75;;;12.10;99.90;;;;;;4957207;28;20065;-79
2023/09/27 03:45:12;;;;;;;8.90;7.20;;;12.10;99.90;;;;;;4955465;28;20038;-82
2023/09/27 03:47:37;;;;;;;11.88;8.32;;;12.10;99.90;;;;;;4961028;28;20065;-79
2023/09/27 03:50:04;;;;;;;8.88;7.03;;;12.10;99.90;;;;;;4959315;28;20444;-79
2023/09/27 03:52:30;;;;;;;11.32;7.38;;;12.10;99.90;;;;;;4964328;28;20124;-79
2023/09/27 03:54:56;;;;;;;13.48;7.72;;;12.10;99.90;;;;;;4964007;28;20134;-79
2023/09/27 03:57:22;;;;;;;14.30;8.20;;;12.00;99.90;;;;;;4983505;28;20034;-79
2023/09/27 03:59:48;;;;;;;13.23;8.05;;;11.90;99.90;;;;;;4966677;28;20752;-79
2023/09/27 04:02:14;;;;;;;14.05;7.20;;;11.80;99.90;;;;;;4980860;28;20058;-80
2023/09/27 04:04:40;;;;;;;10.40;7.63;;;11.80;99.90;;;;;;4980759;28;20027;-80
2023/09/27 04:07:06;;;;;;;10.13;7.38;;;11.70;99.90;;;;;;4977412;28;20049;-82
2023/09/27 04:09:32;;;;;;;9.27;6.65;;;11.60;99.90;;;;;;4955733;28;20046;-82
2023/09/27 04:11:57;;;;;;;9.50;6.90;;;11.60;99.90;;;;;;4972989;28;20500;-81
2023/09/27 04:14:23;;;;;;;10.48;6.90;;;11.70;99.90;;;;;;4954468;28;20030;-81
2023/09/27 04:16:49;;;;;;;9.85;6.57;;;11.70;99.90;;;;;;4974423;28;20396;-79
2023/09/27 04:19:15;;;;;;;8.07;6.68;;;11.70;99.90;;;;;;4977128;28;20111;-79
2023/09/27 04:21:40;;;;;;;9.27;6.22;;;11.70;99.90;;;;;;4983978;28;20042;-79
2023/09/27 04:24:06;;;;;;;7.30;6.00;;;11.80;99.90;;;;;;4972329;28;20517;-78
2023/09/27 04:26:32;;;;;;;8.40;5.88;;;11.80;99.90;;;;;;4974264;28;20037;-79
2023/09/27 04:29:00;;;;;;;6.40;5.15;;;11.80;99.90;;;;;;4983343;28;20034;-79
2023/09/27 04:31:26;;;;;;;6.88;5.50;;;11.80;99.90;;;;;;4963760;28;20026;-78
2023/09/27 04:33:51;;;;;;;5.60;5.00;;;11.80;99.90;;;;;;4981415;28;20027;-79
2023/09/27 04:36:17;;;;;;;5.90;5.32;;;11.80;99.90;;;;;;4959233;28;20117;-79
2023/09/27 04:38:47;;;;;;;7.03;5.35;;;11.80;99.90;;;;;;4978513;28;20105;-81
2023/09/27 04:41:17;;;;;;;6.53;4.70;;;11.80;99.90;;;;;;4983150;28;20026;-79
2023/09/27 04:43:44;;;;;;;6.65;5.47;;;11.80;99.90;;;;;;4980882;28;20031;-78
2023/09/27 04:46:14;;;;;;;6.53;5.32;;;11.80;99.90;;;;;;4976747;28;20031;-79
2023/09/27 04:48:39;;;;;;;7.07;5.55;;;11.70;99.90;;;;;;4974824;28;20031;-78
2023/09/27 04:51:05;;;;;;;6.80;5.93;;;11.70;99.90;;;;;;4972534;28;20041;-82
2023/09/27 04:53:34;;;;;;;7.60;5.88;;;11.70;99.90;;;;;;4975458;28;20027;-78
2023/09/27 04:56:02;;;;;;;5.90;5.32;;;11.70;99.90;;;;;;4977807;28;20515;-80
2023/09/27 04:58:27;;;;;;;6.65;5.57;;;11.70;99.90;;;;;;4980258;28;20058;-80
2023/09/27 05:00:53;;;;;;;7.40;5.30;;;11.70;99.90;;;;;;4977626;28;20035;-78
2023/09/27 05:03:19;;;;;;;7.22;5.78;;;11.70;99.90;;;;;;4981312;28;20041;-79
2023/09/27 05:05:45;;;;;;;6.75;5.68;;;11.70;99.90;;;;;;4977252;28;20489;-80
2023/09/27 05:08:10;;;;;;;7.47;5.53;;;11.70;99.90;;;;;;4982420;28;20491;-79
2023/09/27 05:10:36;;;;;;;6.82;5.00;;;11.70;99.90;;;;;;4977524;28;20038;-79
2023/09/27 05:13:03;;;;;;;5.75;4.72;;;11.70;99.90;;;;;;4980280;28;20039;-79
2023/09/27 05:15:31;;;;;;;7.25;5.32;;;11.70;99.90;;;;;;4978855;28;20126;-79
2023/09/27 05:17:57;;;;;;;6.00;5.07;;;11.60;99.90;;;;;;4959471;28;20082;-79
2023/09/27 05:20:23;;;;;;;5.90;5.30;;;11.60;99.90;;;;;;4974987;28;20031;-79
2023/09/27 05:22:49;;;;;;;6.93;5.47;;;11.60;99.90;;;;;;4976547;28;20107;-78
2023/09/27 05:25:14;;;;;;;6.57;5.28;;;11.60;99.90;;;;;;4977562;28;20034;-79
2023/09/27 05:27:40;;;;;;;6.18;5.45;;;11.60;99.90;;;;;;4972534;28;20049;-79
2023/09/27 05:30:12;;;;;;;6.30;5.53;;;11.60;99.90;;;;;;4977194;28;20031;-78
2023/09/27 05:32:40;;;;;;;11.07;9.88;;;11.60;99.90;;;;;;4975109;28;20034;-78
2023/09/27 05:35:07;;;;;;;7.63;6.68;;;11.60;99.90;;;;;;4978869;28;20129;-78
2023/09/27 05:37:32;;;;;;;10.20;6.93;;;11.60;99.90;;;;;;4978579;28;20027;-78
2023/09/27 05:39:58;;;;;;;8.77;7.25;;;11.60;99.90;;;;;;4976766;28;20130;-78
2023/09/27 05:42:24;;;;;;;10.27;7.70;;;11.70;99.90;;;;;;4979100;28;20027;-78
2023/09/27 05:44:50;;;;;;;7.28;6.57;;;11.80;99.90;;;;;;4960555;28;20053;-79
2023/09/27 05:47:16;;;;;;;8.68;7.75;;;11.80;99.90;;;;;;4979821;28;20050;-78
2023/09/27 05:49:42;;;;;;;9.25;6.60;;;11.90;99.90;;;;;;4966048;28;20031;-77
2023/09/27 05:52:13;;;;;;;7.75;6.55;;;11.90;99.90;;;;;;4977847;28;20065;-79
2023/09/27 05:54:39;;;;;;;9.73;7.05;;;12.00;99.90;;;;;;4976611;28;20030;-79
2023/09/27 05:57:06;;;;;;;7.20;6.50;;;11.90;99.90;;;;;;4976548;28;20103;-79
2023/09/27 05:59:40;;;;;;;7.00;6.40;;;11.90;99.90;;;;;;4981381;28;20050;-79
2023/09/27 06:02:16;;;;;;;9.15;7.50;;;11.90;99.90;;;;;;4966065;28;20553;-79
2023/09/27 06:04:43;;;;;;;9.93;8.82;;;12.00;99.90;;;;;;4977986;28;20084;-80
2023/09/27 06:07:17;;;;;;;14.00;7.40;;;12.10;99.90;;;;;;4978918;28;20030;-80
2023/09/27 06:09:44;;;;;;;8.20;7.25;;;12.20;99.90;;;;;;4946057;28;20042;-80
2023/09/27 06:12:12;;;;;;;10.60;7.47;;;12.30;99.90;;;;;;4981329;28;20111;-79
2023/09/27 06:14:38;;;;;;;7.63;5.97;;;12.40;99.90;;;;;;4980241;28;20022;-79
2023/09/27 06:17:05;;;;;;;6.55;4.65;;;12.50;99.90;;;;;;4966208;28;20031;-80
2023/09/27 06:19:32;;;;;;;4.25;3.85;;;12.60;99.90;;;;;;4985011;28;20376;-78
2023/09/27 06:21:58;;;;;;;6.65;4.82;;;12.60;99.90;;;;;;4980194;28;20070;-78
2023/09/27 06:24:26;;;;;;;6.70;4.68;;;12.60;99.90;;;;;;4981029;28;20030;-78
2023/09/27 06:26:52;;;;;;;5.82;4.65;;;12.60;99.90;;;;;;4982153;28;20090;-79
2023/09/27 06:29:19;;;;;;;7.10;5.30;;;12.70;99.90;;;;;;4965939;28;20050;-79
2023/09/27 06:31:49;;;;;;;8.20;6.43;;;12.70;99.90;;;;;;4982019;28;20027;-80
2023/09/27 06:34:16;;;;;;;9.55;8.10;;;12.90;99.90;;;;;;4980535;28;20098;-79
2023/09/27 06:36:42;;;;;;;9.07;7.28;;;12.90;99.90;;;;;;4980961;28;20480;-78
2023/09/27 06:39:15;;;;;;;6.57;5.68;;;13.00;99.90;;;;;;4983470;28;20062;-79
2023/09/27 06:41:42;;;;;;;8.25;5.57;;;13.20;99.90;;;;;;4985338;28;20034;-79
2023/09/27 06:44:08;;;;;;;5.32;4.82;;;13.40;99.90;;;;;;4985108;28;20114;-78
2023/09/27 06:46:35;;;;;;;6.82;4.90;;;13.60;99.90;;;;;;4981987;28;20344;-77
2023/09/27 06:49:02;;;;;;;6.00;4.35;;;13.70;99.90;;;;;;4964318;28;20049;-79
2023/09/27 06:51:28;;;;;;;5.28;4.65;;;14.00;99.90;;;;;;4979199;28;20037;-79
2023/09/27 06:53:53;;;;;;;4.47;4.07;;;14.20;99.90;;;;;;4986814;28;20043;-78
2023/09/27 06:56:19;;;;;;;5.32;4.60;;;14.40;99.90;;;;;;4981351;28;20057;-79
2023/09/27 06:58:45;;;;;;;6.38;5.30;;;14.60;99.90;;;;;;4981947;28;20027;-79
2023/09/27 07:01:11;;;;;;;8.45;6.55;;;14.80;99.90;;;;;;4977532;28;20390;-78
2023/09/27 07:03:37;;;;;;;11.00;8.45;;;14.80;99.90;;;;;;4983442;28;20093;-79
2023/09/27 07:06:03;;;;;;;8.57;7.43;;;14.80;99.90;;;;;;4973692;28;20050;-79
2023/09/27 07:08:29;;;;;;;9.45;7.57;;;14.90;99.90;;;;;;4987111;28;20058;-79
2023/09/27 07:11:03;;;;;;;8.63;7.35;;;15.00;99.90;;;;;;4982288;28;20054;-80
2023/09/27 07:13:30;;;;;;;10.90;8.73;;;15.10;99.90;;;;;;4980566;28;20031;-81
2023/09/27 07:15:56;;;;;;;11.00;8.75;;;15.10;99.90;;;;;;4975281;28;20031;-80
2023/09/27 07:18:22;;;;;;;9.93;7.22;;;15.30;99.90;;;;;;4974018;28;20067;-80
2023/09/27 07:20:50;;;;;;;9.70;7.70;;;15.50;99.90;;;;;;4966998;28;20098;-79
2023/09/27 07:23:16;;;;;;;10.77;8.77;;;15.50;99.90;;;;;;4964461;28;20031;-80
2023/09/27 07:25:44;;;;;;;10.48;8.48;;;15.70;99.90;;;;;;4980383;28;20295;-80
2023/09/27 07:28:11;;;;;;;6.80;5.22;;;15.80;99.90;;;;;;4969977;28;20535;-80
2023/09/27 07:30:37;;;;;;;5.57;4.97;;;16.00;99.90;;;;;;4969289;28;20089;-80
2023/09/27 07:33:10;;;;;;;6.57;5.03;;;16.10;99.90;;;;;;4953393;28;20165;-79
2023/09/27 07:35:41;;;;;;;7.00;5.00;;;16.30;99.90;;;;;;4971626;28;20061;-80
2023/09/27 07:38:08;;;;;;;7.57;4.97;;;16.40;99.90;;;;;;4972476;28;20042;-79
2023/09/27 07:40:34;;;;;;;6.75;4.95;;;16.50;99.90;;;;;;4978856;28;20073;-79
2023/09/27 07:43:00;;;;;;;5.30;4.80;;;16.50;99.90;;;;;;4976957;28;20042;-81
2023/09/27 07:45:30;;;;;;;6.70;5.25;;;16.60;99.90;;;;;;4984442;28;20039;-80
2023/09/27 07:47:56;;;;;;;6.03;5.43;;;16.60;99.90;;;;;;4977855;28;20035;-79
2023/09/27 07:50:27;;;;;;;6.38;4.82;;;16.70;99.90;;;;;;4971904;28;20390;-78
2023/09/27 07:52:59;;;;;;;6.10;5.50;;;16.70;99.90;;;;;;4966667;28;20095;-81
2023/09/27 07:55:26;;;;;;;9.20;7.25;;;16.80;99.90;;;;;;4971865;28;20022;-79
2023/09/27 07:57:52;;;;;;;7.85;6.90;;;17.00;99.90;;;;;;4976705;28;20146;-83
2023/09/27 08:00:25;;;;;;;8.77;7.32;;;17.10;99.90;;;;;;4970626;28;20034;-80
2023/09/27 08:02:51;;;;;;;11.30;8.07;;;17.00;99.90;;;;;;4975754;28;20092;-80
2023/09/27 08:05:17;;;;;;;12.45;9.80;;;17.10;99.90;;;;;;4955199;28;20535;-79
2023/09/27 08:07:46;;;;;;;12.15;9.80;;;17.10;99.90;;;;;;4971702;28;20057;-79
2023/09/27 08:10:12;;;;;;;14.50;9.70;;;17.10;99.90;;;;;;4971389;28;20038;-81
2023/09/27 08:12:39;;;;;;;12.73;10.20;;;17.20;99.90;;;;;;4978346;28;20030;-78
2023/09/27 08:15:06;;;;;;;12.48;10.32;;;17.30;99.90;;;;;;4976823;28;20039;-78
2023/09/27 08:17:32;;;;;;;9.40;8.38;;;17.30;99.90;;;;;;4956263;28;20038;-78
2023/09/27 08:19:59;;;;;;;10.60;7.63;;;17.50;99.90;;;;;;4964092;28;20038;-80
2023/09/27 08:22:25;;;;;;;7.95;6.57;;;17.60;99.90;;;;;;4976368;28;20114;-78
2023/09/27 08:29:22;;;;;;;10.35;8.02;;;17.80;99.90;;;;;;4824130;29;20044;-77
2023/09/27 08:31:48;;;;;;;11.65;8.82;;;18.00;99.90;;;;;;4891626;28;20046;-79
2023/09/27 08:34:14;;;;;;;12.63;8.77;;;18.10;99.90;;;;;;4965774;28;20038;-78
2023/09/27 08:36:39;;;;;;;12.18;8.38;;;18.10;99.90;;;;;;4969562;28;20042;-78
2023/09/27 08:39:05;;;;;;;12.25;8.23;;;18.20;99.90;;;;;;4973344;28;20037;-78
2023/09/27 08:41:31;;;;;;;11.65;9.82;;;18.30;99.90;;;;;;4966030;28;20030;-78
2023/09/27 08:43:57;;;;;;;9.82;7.90;;;18.30;99.90;;;;;;4956082;28;20026;-78
2023/09/27 08:46:24;;;;;;;10.10;7.60;;;18.40;99.90;;;;;;4938417;28;20031;-78
2023/09/27 08:48:51;;;;;;;10.07;8.23;;;18.50;99.90;;;;;;4967824;28;20037;-78
2023/09/27 08:51:17;;;;;;;15.52;8.75;;;18.60;99.90;;;;;;4934781;28;20058;-78
2023/09/27 08:53:43;;;;;;;15.68;9.38;;;18.50;99.90;;;;;;4961954;28;20384;-78
2023/09/27 08:56:12;;;;;;;13.43;8.90;;;18.40;99.90;;;;;;4967691;28;20029;-78
2023/09/27 08:58:39;;;;;;;18.02;12.95;;;18.60;99.90;;;;;;4970463;28;20042;-77
2023/09/27 09:01:07;;;;;;;14.27;10.52;;;18.60;99.90;;;;;;4972400;28;20535;-78
2023/09/27 09:03:34;;;;;;;14.38;9.00;;;18.80;99.90;;;;;;4967191;28;20027;-79
2023/09/27 09:06:01;;;;;;;14.00;10.15;;;19.00;99.90;;;;;;4956429;28;20039;-79
2023/09/27 09:08:26;;;;;;;14.00;10.20;;;19.10;99.90;;;;;;4959833;28;20027;-77
2023/09/27 09:10:54;;;;;;;13.00;8.95;;;19.00;99.90;;;;;;4981197;28;20026;-78
2023/09/27 09:13:22;;;;;;;14.05;9.90;;;19.10;99.90;;;;;;4966388;28;20049;-79
2023/09/27 09:15:49;;;;;;;12.75;9.05;;;19.10;99.90;;;;;;4971274;28;20051;-78
2023/09/27 09:18:28;;;;;;;11.38;8.20;;;19.10;99.90;;;;;;4976236;28;20058;-78
2023/09/27 09:21:08;;;;;;;11.85;8.13;;;19.10;99.90;;;;;;4973395;28;20080;-77
2023/09/27 09:23:36;;;;;;;11.27;7.50;;;19.00;99.90;;;;;;4973800;28;20040;-79
2023/09/27 09:26:05;;;;;;;12.93;7.30;;;19.10;99.90;;;;;;4973341;28;20167;-79
2023/09/27 09:28:31;;;;;;;9.13;7.57;;;19.20;99.90;;;;;;4973645;28;20034;-79
2023/09/27 09:30:57;;;;;;;10.43;8.10;;;19.20;99.90;;;;;;4980496;28;20030;-79
2023/09/27 09:33:24;;;;;;;21.30;11.05;;;19.30;99.90;;;;;;4979408;28;20022;-78
2023/09/27 09:35:51;;;;;;;12.82;7.40;;;19.40;99.90;;;;;;4980168;28;20420;-79
2023/09/27 09:38:30;;;;;;;12.32;7.18;;;19.50;99.90;;;;;;4980021;28;20035;-79
2023/09/27 09:41:05;;;;;;;10.77;7.28;;;19.50;99.90;;;;;;4976725;28;20101;-79
2023/09/27 09:43:33;;;;;;;7.75;6.28;;;19.60;99.90;;;;;;4959925;28;20027;-78
2023/09/27 09:46:10;;;;;;;12.00;7.57;;;19.70;99.90;;;;;;4957817;28;20055;-78
2023/09/27 09:48:38;;;;;;;11.75;7.90;;;19.80;99.90;;;;;;4968811;28;20082;-79
2023/09/27 09:51:08;;;;;;;11.40;8.05;;;19.90;99.90;;;;;;4967661;28;20114;-77
2023/09/27 09:53:38;;;;;;;9.30;7.45;;;19.90;99.90;;;;;;4967063;28;20023;-78
2023/09/27 09:56:06;;;;;;;13.38;7.38;;;20.10;99.90;;;;;;4966518;28;20058;-78
2023/09/27 09:58:54;;;;;;;7.80;6.82;;;20.10;99.90;;;;;;4972020;28;20117;-78
2023/09/27 10:01:22;;;;;;;12.93;8.27;;;20.20;99.90;;;;;;4972957;28;20030;-78
2023/09/27 10:03:51;;;;;;;11.63;7.50;;;20.20;99.90;;;;;;4976090;28;20041;-77
2023/09/27 10:06:20;;;;;;;11.07;6.15;;;20.30;99.90;;;;;;4969599;28;20066;-81
2023/09/27 10:08:47;;;;;;;7.65;6.75;;;20.40;99.90;;;;;;4955665;28;20039;-79
2023/09/27 10:11:14;;;;;;;7.53;6.25;;;20.40;99.90;;;;;;4973708;28;20393;-79
2023/09/27 10:13:41;;;;;;;9.93;7.55;;;20.50;99.90;;;;;;4972334;28;20027;-78
2023/09/27 10:16:09;;;;;;;10.68;7.20;;;20.60;99.90;;;;;;4974492;28;20115;-79
2023/09/27 10:18:41;;;;;;;13.52;6.50;;;20.60;99.90;;;;;;4971130;28;20392;-78
2023/09/27 10:21:08;;;;;;;9.00;6.82;;;20.60;99.90;;;;;;4980011;28;20121;-78
2023/09/27 10:23:46;;;;;;;11.02;6.55;;;20.70;99.90;;;;;;4979872;28;20050;-79
2023/09/27 10:26:26;;;;;;;10.80;7.20;;;20.70;99.90;;;;;;4976267;28;20037;-79
2023/09/27 10:29:06;;;;;;;9.43;8.43;;;20.80;99.90;;;;;;4969450;28;20380;-78
2023/09/27 10:31:33;;;;;;;11.13;7.60;;;20.80;99.90;;;;;;4970238;28;20464;-81
2023/09/27 10:33:59;;;;;;;12.30;7.75;;;21.00;99.90;;;;;;4972030;28;20038;-78
2023/09/27 10:36:25;;;;;;;8.80;6.85;;;21.00;99.90;;;;;;4971370;28;20023;-79
2023/09/27 10:38:50;;;;;;;12.23;7.50;;;21.10;99.90;;;;;;4970779;28;20070;-78
2023/09/27 10:41:31;;;;;;;12.07;7.43;;;21.10;99.90;;;;;;4974896;28;20030;-80
2023/09/27 10:43:57;;;;;;;10.93;7.38;;;21.10;99.90;;;;;;4978281;28;20130;-78
2023/09/27 10:46:24;;;;;;;11.45;7.45;;;21.20;99.90;;;;;;4970470;28;20171;-79
2023/09/27 10:48:57;;;;;;;10.07;7.45;;;21.20;99.90;;;;;;4969941;28;21075;-77
2023/09/27 10:51:26;;;;;;;10.15;7.22;;;21.20;99.90;;;;;;4969747;28;20035;-78
2023/09/27 10:53:54;;;;;;;12.13;7.22;;;21.30;99.90;;;;;;4955232;28;20073;-80
2023/09/27 10:56:20;;;;;;;11.52;7.20;;;21.40;99.90;;;;;;4972693;28;20023;-81
2023/09/27 10:58:49;;;;;;;12.85;7.10;;;21.40;99.90;;;;;;4973274;28;20031;-81
2023/09/27 11:01:23;;;;;;;9.45;6.70;;;21.40;99.90;;;;;;4969951;28;20026;-78
2023/09/27 11:04:12;;;;;;;9.15;7.25;;;21.40;99.90;;;;;;4975037;28;20113;-80
2023/09/27 11:06:37;;;;;;;10.50;6.70;;;21.50;99.90;;;;;;4966739;28;20042;-77
2023/09/27 11:09:05;;;;;;;9.45;6.72;;;21.60;99.90;;;;;;4967567;28;20031;-78
2023/09/27 11:11:31;;;;;;;8.20;7.00;;;21.60;99.90;;;;;;4969544;28;20045;-79
2023/09/27 11:13:57;;;;;;;10.18;7.22;;;21.70;99.90;;;;;;4968093;28;20042;-76
2023/09/27 11:16:24;;;;;;;13.00;7.25;;;21.70;99.90;;;;;;4976107;28;20037;-79
2023/09/27 11:18:51;;;;;;;10.43;6.57;;;21.80;99.90;;;;;;4976970;28;20035;-79
2023/09/27 11:21:19;;;;;;;10.65;6.55;;;21.80;99.90;;;;;;4977551;28;20403;-77
2023/09/27 11:23:54;;;;;;;9.35;6.78;;;21.90;99.90;;;;;;4972115;28;20534;-80
2023/09/27 11:26:24;;;;;;;10.00;6.97;;;21.90;99.90;;;;;;4978886;28;20030;-79
2023/09/27 11:29:00;;;;;;;11.30;7.18;;;22.00;99.90;;;;;;4978343;28;20407;-81
2023/09/27 11:31:51;;;;;;;7.72;6.45;;;22.00;99.90;;;;;;4973178;28;20026;-78
2023/09/27 11:34:19;;;;;;;8.77;6.82;;;22.10;99.90;;;;;;4973873;28;20038;-80
2023/09/27 11:36:53;;;;;;;12.13;6.18;;;22.30;99.90;;;;;;4974945;28;20033;-81
2023/09/27 11:39:28;;;;;;;7.97;6.22;;;22.40;99.90;;;;;;4977319;28;20026;-81
2023/09/27 11:42:00;;;;;;;10.17;5.87;;;22.50;99.90;;;;;;4971014;28;20030;-80
2023/09/27 11:44:27;;;;;;;10.55;7.05;;;22.60;99.90;;;;;;4952972;28;20066;-79
2023/09/27 11:47:09;;;;;;;8.07;6.65;;;22.70;99.90;;;;;;4973722;28;20039;-79
2023/09/27 11:49:35;;;;;;;11.50;6.80;;;22.80;99.90;;;;;;4972429;28;20043;-78
2023/09/27 11:52:02;;;;;;;8.98;6.43;;;22.70;99.90;;;;;;4977489;28;20031;-82
2023/09/27 11:54:29;;;;;;;12.30;7.05;;;22.80;99.90;;;;;;4974791;28;20034;-79
2023/09/27 11:56:55;;;;;;;7.78;6.45;;;22.80;99.90;;;;;;4953781;28;20406;-79
2023/09/27 11:59:21;;;;;;;6.95;6.25;;;22.80;99.90;;;;;;4949739;28;20055;-77
2023/09/27 12:01:46;;;;;;;8.63;5.90;;;22.70;99.90;;;;;;4966952;28;20023;-78
2023/09/27 12:04:12;;;;;;;7.60;5.18;;;22.90;99.90;;;;;;4947962;28;20611;-81
2023/09/27 12:06:38;;;;;;;8.30;6.30;;;23.00;99.90;;;;;;4968339;28;20578;-80
2023/09/27 12:09:08;;;;;;;10.82;5.50;;;23.00;99.90;;;;;;4966906;28;20043;-79
2023/09/27 12:11:34;;;;;;;7.90;5.97;;;23.00;99.90;;;;;;4950161;28;20053;-78
2023/09/27 12:14:00;;;;;;;11.05;6.65;;;23.00;99.90;;;;;;4950708;28;20045;-79
2023/09/27 12:16:26;;;;;;;8.07;6.85;;;23.00;99.90;;;;;;4951077;28;20049;-79
2023/09/27 12:18:52;;;;;;;8.77;6.57;;;23.00;99.90;;;;;;4961324;28;20077;-79
2023/09/27 12:21:18;;;;;;;9.35;7.10;;;23.00;99.90;;;;;;4965575;28;20058;-78
2023/09/27 12:23:44;;;;;;;10.82;7.20;;;22.90;99.90;;;;;;4950375;28;20053;-77
2023/09/27 12:26:10;;;;;;;9.38;6.32;;;22.90;99.90;;;;;;4968343;28;20125;-77
2023/09/27 12:28:37;;;;;;;13.35;6.85;;;23.00;99.90;;;;;;4975801;28;20530;-77
2023/09/27 12:31:06;;;;;;;12.55;7.15;;;23.00;99.90;;;;;;4959162;28;20049;-78
2023/09/27 12:33:34;;;;;;;13.50;6.65;;;23.00;99.90;;;;;;4976232;28;20026;-77
2023/09/27 12:36:01;;;;;;;12.55;7.05;;;23.00;99.90;;;;;;4958027;28;20420;-78
2023/09/27 12:38:27;;;;;;;11.50;6.97;;;23.00;99.90;;;;;;4985523;28;20042;-79
2023/09/27 12:40:53;;;;;;;10.95;7.13;;;23.00;99.90;;;;;;4979616;28;20772;-78
2023/09/27 12:43:19;;;;;;;9.00;7.13;;;23.00;99.90;;;;;;4979986;28;20038;-78
2023/09/27 12:45:45;;;;;;;11.60;7.30;;;23.00;99.90;;;;;;4974028;28;20023;-78
2023/09/27 12:48:10;;;;;;;10.65;7.18;;;23.00;99.90;;;;;;4979082;28;20048;-77
2023/09/27 12:50:41;;;;;;;8.75;7.30;;;22.90;99.90;;;;;;4972481;28;20134;-78